Time;durP1;ratioP1;P1;durP2;ratioP2;P2;SDS_P1;SDS_P2;PMS_P1;PMS_P2;Temp;Humidity;BMP_temperature;BMP_pressure;BME280_temperature;BME280_humidity;BME280_pressure;Samples;Min_cycle;Max_cycle;Signal;HPM_P1;HPM_P2
2023/04/06 00:00:11;;;;;;;6.53;5.27;;;;;;;6.49;52.90;94369.16;5049620;28;20191;-48
2023/04/06 00:02:38;;;;;;;5.27;4.77;;;;;;;6.47;52.95;94359.09;5049069;28;20234;-48
2023/04/06 00:05:05;;;;;;;6.77;6.07;;;;;;;6.49;52.86;94356.47;5039276;28;20195;-48
2023/04/06 00:07:33;;;;;;;7.53;6.23;;;;;;;6.45;52.71;94345.72;5047454;28;20625;-49
2023/04/06 00:10:00;;;;;;;7.70;5.63;;;;;;;6.48;52.87;94355.66;5049297;28;20256;-48
2023/04/06 00:12:27;;;;;;;6.83;5.97;;;;;;;6.46;53.03;94342.25;5049421;28;20210;-48
2023/04/06 00:14:54;;;;;;;6.20;5.47;;;;;;;6.47;52.95;94336.25;5047772;28;20195;-49
2023/04/06 00:17:22;;;;;;;6.13;5.57;;;;;;;6.46;52.93;94339.72;5035971;28;20282;-49
2023/04/06 00:19:49;;;;;;;7.77;5.77;;;;;;;6.45;53.01;94343.19;5029533;28;20215;-48
2023/04/06 00:22:16;;;;;;;6.83;6.13;;;;;;;6.44;52.88;94325.53;5029521;28;20210;-50
2023/04/06 00:24:43;;;;;;;7.07;5.87;;;;;;;6.36;52.87;94313.44;5029459;28;20266;-47
2023/04/06 00:27:10;;;;;;;6.00;5.40;;;;;;;6.43;53.06;94327.28;5036329;28;20191;-52
2023/04/06 00:29:38;;;;;;;8.63;5.80;;;;;;;6.44;53.04;94326.34;5048962;28;20190;-48
2023/04/06 00:32:05;;;;;;;6.17;5.57;;;;;;;6.44;53.05;94330.63;5048884;28;20190;-49
2023/04/06 00:34:33;;;;;;;5.67;5.13;;;;;;;6.39;52.95;94317.47;5049180;28;20277;-48
2023/04/06 00:37:00;;;;;;;6.10;5.50;;;;;;;6.44;52.80;94325.53;5031193;28;20180;-48
2023/04/06 00:39:27;;;;;;;6.53;5.50;;;;;;;6.45;52.99;94319.53;5050386;28;20199;-48
2023/04/06 00:41:55;;;;;;;6.23;5.37;;;;;;;6.46;52.82;94321.13;5053237;28;20281;-50
2023/04/06 00:44:22;;;;;;;6.03;5.37;;;;;;;6.46;52.97;94328.75;5053270;28;20343;-49
2023/04/06 00:46:49;;;;;;;5.77;5.20;;;;;;;6.46;52.93;94321.13;5053601;28;20201;-50
2023/04/06 00:49:16;;;;;;;6.70;5.53;;;;;;;6.47;53.02;94323.53;5052554;28;20191;-50
2023/04/06 00:51:45;;;;;;;6.83;5.30;;;;;;;6.44;52.86;94310.31;5053116;28;20669;-48
2023/04/06 00:54:12;;;;;;;6.57;5.60;;;;;;;6.39;52.83;94308.13;5052958;28;20877;-48
2023/04/06 00:56:39;;;;;;;6.23;5.37;;;;;;;6.49;52.83;94316.63;5053151;28;20190;-48
2023/04/06 00:59:05;;;;;;;8.13;5.60;;;;;;;6.50;52.77;94315.69;5052947;28;20667;-48
2023/04/06 01:01:33;;;;;;;6.33;5.27;;;;;;;5.95;52.83;94240.53;5052944;28;20201;-48
2023/04/06 01:04:00;;;;;;;5.80;5.23;;;;;;;6.56;52.85;94318.66;5043106;28;20917;-48
2023/04/06 01:06:27;;;;;;;8.03;5.43;;;;;;;6.58;52.94;94314.28;5033114;28;20196;-48
2023/04/06 01:08:55;;;;;;;6.50;5.87;;;;;;;6.60;52.86;94314.94;5032644;28;20224;-47
2023/04/06 01:11:22;;;;;;;5.77;5.27;;;;;;;6.61;52.82;94314.84;5033125;28;20195;-48
2023/04/06 01:13:49;;;;;;;6.23;5.60;;;;;;;6.64;52.68;94317.13;5032305;28;20283;-48
2023/04/06 01:16:16;;;;;;;5.87;5.37;;;;;;;6.65;52.66;94308.59;5032848;28;20191;-48
2023/04/06 01:18:43;;;;;;;6.47;5.77;;;;;;;6.63;52.62;94299.47;5041082;28;20187;-48
2023/04/06 01:21:15;;;;;;;5.73;5.00;;;;;;;6.71;52.81;94304.75;5052569;28;20187;-48
2023/04/06 01:23:46;;;;;;;6.07;5.47;;;;;;;6.75;52.53;94306.09;5052195;28;20230;-47
2023/04/06 01:26:13;;;;;;;6.77;5.50;;;;;;;6.76;52.73;94303.44;5052648;28;20265;-48
2023/04/06 01:28:40;;;;;;;6.50;5.80;;;;;;;6.74;52.61;94300.22;5052217;28;20277;-49
2023/04/06 01:31:09;;;;;;;6.20;5.60;;;;;;;6.79;52.49;94307.47;5047176;28;20675;-48
2023/04/06 01:33:36;;;;;;;6.47;5.83;;;;;;;6.85;52.44;94306.16;5043154;28;20299;-48
2023/04/06 01:36:03;;;;;;;5.60;5.07;;;;;;;6.86;52.40;94303.47;5052029;28;20198;-50
2023/04/06 01:38:30;;;;;;;7.27;6.00;;;;;;;6.61;52.57;94258.97;5052695;28;20666;-47
2023/04/06 01:40:59;;;;;;;7.30;5.53;;;;;;;6.92;52.46;94294.56;5051786;28;20195;-49
2023/04/06 01:43:25;;;;;;;6.43;5.00;;;;;;;6.93;52.25;94293.63;5052537;28;20207;-49
2023/04/06 01:45:52;;;;;;;5.50;5.00;;;;;;;6.95;52.47;94291.75;5049857;28;20657;-50
2023/04/06 01:48:20;;;;;;;6.17;5.57;;;;;;;6.71;52.28;94249.66;5032603;28;20278;-48
2023/04/06 01:50:46;;;;;;;7.87;6.03;;;;;;;6.95;52.32;94289.22;5032080;28;20184;-48
2023/04/06 01:53:14;;;;;;;5.70;5.20;;;;;;;6.99;52.30;94296.50;5032171;28;20710;-49
2023/04/06 01:55:41;;;;;;;5.80;5.20;;;;;;;6.99;52.36;94286.31;5031889;28;20192;-50
2023/04/06 01:58:09;;;;;;;6.00;5.40;;;;;;;6.98;52.21;94279.59;5032017;28;20192;-49
2023/04/06 02:00:36;;;;;;;6.80;6.10;;;;;;;7.00;52.20;94280.31;5031585;28;20203;-50
2023/04/06 02:03:03;;;;;;;6.53;5.87;;;;;;;7.05;52.11;94282.47;5031697;28;20765;-47
2023/04/06 02:05:33;;;;;;;8.47;6.47;;;;;;;7.07;52.21;94283.13;5031982;28;20184;-50
2023/04/06 02:07:59;;;;;;;7.23;6.43;;;;;;;7.07;52.13;94283.13;5031946;28;20261;-48
2023/04/06 02:10:26;;;;;;;7.57;6.87;;;;;;;7.09;52.16;94283.03;5031459;28;20847;-48
2023/04/06 02:12:53;;;;;;;8.03;6.00;;;;;;;7.10;52.17;94277.81;5031245;28;20202;-48
2023/04/06 02:15:21;;;;;;;6.87;6.23;;;;;;;6.57;51.95;94194.09;5031833;28;20262;-48
2023/04/06 02:17:48;;;;;;;6.83;6.13;;;;;;;7.13;52.16;94280.09;5031242;28;20207;-49
2023/04/06 02:20:15;;;;;;;7.37;6.63;;;;;;;7.13;52.39;94276.75;5031481;28;20194;-48
2023/04/06 02:22:42;;;;;;;8.30;6.40;;;;;;;7.15;52.01;94282.50;5031529;28;20219;-50
2023/04/06 02:25:09;;;;;;;6.87;6.10;;;;;;;7.16;51.91;94277.28;5031773;28;20199;-48
2023/04/06 02:27:36;;;;;;;6.13;5.53;;;;;;;7.11;51.88;94269.25;5031347;28;20258;-48
2023/04/06 02:30:03;;;;;;;7.03;6.17;;;;;;;7.18;52.14;94280.53;5034513;28;20286;-47
2023/04/06 02:32:32;;;;;;;6.73;6.00;;;;;;;7.18;52.09;94277.19;5051089;28;20195;-51
2023/04/06 02:34:59;;;;;;;8.57;6.10;;;;;;;7.19;52.07;94282.13;5051160;28;20191;-50
2023/04/06 02:37:26;;;;;;;7.07;6.23;;;;;;;7.15;51.98;94275.69;5050900;28;20187;-48
2023/04/06 02:39:52;;;;;;;6.47;5.87;;;;;;;6.67;51.88;94200.00;5051396;28;20198;-49
2023/04/06 02:42:19;;;;;;;6.93;6.13;;;;;;;7.22;51.86;94276.00;5051257;28;20195;-48
2023/04/06 02:44:46;;;;;;;6.10;5.50;;;;;;;7.22;51.81;94279.34;5036275;28;20770;-49
2023/04/06 02:47:13;;;;;;;7.13;5.87;;;;;;;7.23;52.03;94283.47;5030907;28;20196;-49
2023/04/06 02:49:41;;;;;;;7.03;6.30;;;;;;;6.69;51.89;94184.63;5030665;28;20203;-48
2023/04/06 02:52:08;;;;;;;7.53;5.73;;;;;;;6.73;51.99;94194.41;5030973;28;20556;-49
2023/04/06 02:54:35;;;;;;;6.57;5.97;;;;;;;7.25;51.91;94271.47;5030707;28;20192;-50
2023/04/06 02:57:02;;;;;;;6.97;5.03;;;;;;;7.22;52.01;94274.25;5031057;28;20199;-49
2023/04/06 02:59:29;;;;;;;6.90;5.93;;;;;;;7.23;51.87;94275.84;5042871;28;20589;-50
2023/04/06 03:01:56;;;;;;;6.17;5.57;;;;;;;7.25;52.00;94280.81;5049877;28;20191;-49
2023/04/06 03:04:25;;;;;;;6.30;5.17;;;;;;;7.23;51.94;94278.41;5032222;28;20690;-49
2023/04/06 03:06:55;;;;;;;6.80;5.60;;;;;;;7.23;51.88;94275.84;5031291;28;20192;-48
2023/04/06 03:09:22;;;;;;;5.90;5.30;;;;;;;7.27;51.89;94279.75;5030811;28;20227;-49
2023/04/06 03:11:49;;;;;;;5.73;5.13;;;;;;;7.28;51.85;94278.00;5030464;28;20332;-47
2023/04/06 03:14:17;;;;;;;6.73;5.47;;;;;;;7.26;51.89;94280.69;5030366;28;20270;-49
2023/04/06 03:16:44;;;;;;;7.17;5.87;;;;;;;7.27;51.84;94277.22;5030733;28;20658;-49
2023/04/06 03:19:11;;;;;;;6.20;5.40;;;;;;;7.27;51.99;94276.41;5030515;28;20218;-50
2023/04/06 03:21:38;;;;;;;6.13;5.53;;;;;;;7.28;51.94;94285.63;5030603;28;20187;-51
2023/04/06 03:24:07;;;;;;;6.40;5.67;;;;;;;7.29;51.82;94282.16;5030207;28;20724;-50
2023/04/06 03:26:34;;;;;;;7.47;5.70;;;;;;;7.29;51.89;94280.41;5030444;28;20203;-48
2023/04/06 03:29:01;;;;;;;6.83;6.03;;;;;;;7.30;51.92;94281.25;5043736;28;20277;-49
2023/04/06 03:31:28;;;;;;;5.73;5.23;;;;;;;7.31;51.89;94277.75;5050554;28;20272;-48
2023/04/06 03:33:55;;;;;;;6.70;5.83;;;;;;;7.26;51.89;94269.72;5050057;28;20191;-47
2023/04/06 03:36:22;;;;;;;7.43;5.40;;;;;;;7.21;51.90;94259.94;5050075;28;20187;-49
2023/04/06 03:38:49;;;;;;;5.57;5.00;;;;;;;7.33;52.00;94273.34;5050103;28;20191;-49
2023/04/06 03:41:17;;;;;;;5.33;4.83;;;;;;;7.33;51.91;94275.88;5049724;28;20195;-47
2023/04/06 03:43:44;;;;;;;6.30;5.57;;;;;;;7.31;51.81;94270.13;5036654;28;20218;-48
2023/04/06 03:46:11;;;;;;;5.77;5.00;;;;;;;7.33;51.82;94270.00;5030095;28;20183;-49
2023/04/06 03:48:38;;;;;;;6.20;5.60;;;;;;;7.32;51.85;94269.19;5029965;28;20195;-50
2023/04/06 03:51:05;;;;;;;5.47;4.97;;;;;;;7.32;51.82;94274.28;5038684;28;20190;-49
2023/04/06 03:53:32;;;;;;;5.53;4.97;;;;;;;7.34;51.78;94274.13;5049857;28;20179;-49
2023/04/06 03:55:59;;;;;;;7.03;5.60;;;;;;;7.35;51.83;94273.22;5049679;28;20564;-49
2023/04/06 03:58:27;;;;;;;5.43;4.93;;;;;;;7.36;51.71;94265.47;5037388;28;20274;-49
2023/04/06 04:00:54;;;;;;;6.50;5.87;;;;;;;7.36;51.87;94270.53;5030675;28;20646;-47
2023/04/06 04:03:23;;;;;;;6.30;5.63;;;;;;;7.36;51.79;94262.91;5029273;28;20187;-48
2023/04/06 04:05:50;;;;;;;6.73;6.13;;;;;;;7.40;51.87;94277.00;5029500;28;20191;-48
2023/04/06 04:08:17;;;;;;;6.30;5.70;;;;;;;7.40;51.73;94266.81;5029713;28;20296;-49
2023/04/06 04:10:44;;;;;;;6.27;5.63;;;;;;;7.35;51.79;94265.59;5030658;28;20206;-48
2023/04/06 04:13:11;;;;;;;6.47;5.77;;;;;;;7.41;51.71;94276.03;5028787;28;20199;-49
2023/04/06 04:15:39;;;;;;;6.23;5.63;;;;;;;7.34;51.67;94263.97;5029296;28;20206;-48
2023/04/06 04:18:06;;;;;;;6.17;5.23;;;;;;;7.42;51.75;94275.09;5049374;28;20190;-47
2023/04/06 04:20:33;;;;;;;5.77;5.17;;;;;;;7.45;51.66;94276.59;5040786;28;20187;-47
2023/04/06 04:23:00;;;;;;;7.17;5.97;;;;;;;7.44;51.62;94269.91;5048174;28;20570;-48
2023/04/06 04:25:27;;;;;;;6.30;5.70;;;;;;;7.46;51.72;94279.00;5048895;28;20257;-49
2023/04/06 04:27:54;;;;;;;6.03;5.53;;;;;;;7.48;51.57;94274.63;5048736;28;20692;-48
2023/04/06 04:30:21;;;;;;;6.50;5.50;;;;;;;7.51;51.51;94273.53;5042067;28;20563;-49
2023/04/06 04:32:49;;;;;;;5.93;5.33;;;;;;;7.51;51.67;94276.91;5029107;28;20200;-49
2023/04/06 04:35:16;;;;;;;5.90;5.30;;;;;;;7.44;51.50;94262.28;5030560;28;20183;-48
2023/04/06 04:37:43;;;;;;;5.90;5.40;;;;;;;7.54;51.42;94275.81;5029108;28;20195;-49
2023/04/06 04:40:11;;;;;;;5.87;5.27;;;;;;;7.51;51.22;94273.53;5029320;28;20271;-49
2023/04/06 04:42:38;;;;;;;6.13;5.40;;;;;;;7.54;51.50;94274.06;5029457;28;20202;-49
2023/04/06 04:45:06;;;;;;;6.43;5.73;;;;;;;7.59;51.33;94276.22;5028835;28;20231;-47
2023/04/06 04:47:33;;;;;;;7.03;5.67;;;;;;;7.61;51.35;94279.47;5028895;28;20187;-50
2023/04/06 04:50:01;;;;;;;6.57;5.57;;;;;;;7.56;51.32;94265.53;5028720;28;20663;-48
2023/04/06 04:52:28;;;;;;;6.40;5.80;;;;;;;7.66;51.28;94269.69;5029179;28;20528;-47
2023/04/06 04:54:54;;;;;;;5.73;5.17;;;;;;;7.68;51.10;94275.44;5035841;28;20641;-49
2023/04/06 04:57:21;;;;;;;6.93;6.03;;;;;;;7.71;51.42;94272.66;5048899;28;20677;-48
2023/04/06 04:59:50;;;;;;;6.77;6.07;;;;;;;7.72;51.20;94271.72;5033747;28;20266;-48
2023/04/06 05:02:16;;;;;;;6.43;5.30;;;;;;;7.76;51.13;94270.50;5028984;28;20217;-49
2023/04/06 05:04:43;;;;;;;6.50;5.90;;;;;;;7.80;51.19;94278.69;5028700;28;20219;-48
2023/04/06 05:07:18;;;;;;;6.10;5.50;;;;;;;7.83;51.19;94272.56;5040258;28;20199;-49
2023/04/06 05:09:45;;;;;;;7.23;6.50;;;;;;;8.34;88.62;94269.78;5048004;28;20238;-48
2023/04/06 05:12:12;;;;;;;15.23;5.80;;;;;;;9.28;89.14;94260.50;5048802;28;20187;-49
2023/04/06 05:14:39;;;;;;;12.63;4.93;;;;;;;10.17;84.31;94257.28;5048740;28;20193;-48
2023/04/06 05:17:06;;;;;;;6.97;4.60;;;;;;;10.93;78.90;94248.31;5048887;28;20187;-48
2023/04/06 05:19:33;;;;;;;13.93;4.93;;;;;;;11.63;75.08;94258.41;5048667;28;20191;-48
2023/04/06 05:22:00;;;;;;;6.70;4.90;;;;;;;12.20;72.48;94271.41;5048328;28;20666;-49
2023/04/06 05:24:28;;;;;;;12.30;4.57;;;;;;;12.37;70.18;94244.81;5048667;28;20211;-50
2023/04/06 05:26:55;;;;;;;7.17;5.33;;;;;;;12.62;67.96;94273.06;5051896;28;20199;-50
2023/04/06 05:29:22;;;;;;;5.80;5.03;;;;;;;12.52;64.76;94266.31;5050677;28;20190;-48
2023/04/06 05:31:49;;;;;;;8.13;5.50;;;;;;;12.40;61.72;94269.34;5042874;28;20187;-49
2023/04/06 05:34:16;;;;;;;8.73;5.90;;;;;;;12.25;59.99;94272.53;5042017;28;20225;-49
2023/04/06 05:36:43;;;;;;;7.67;5.37;;;;;;;12.11;58.54;94270.59;5039640;28;20192;-48
2023/04/06 05:39:12;;;;;;;7.17;5.80;;;;;;;11.97;57.86;94266.88;5036892;28;20196;-49
2023/04/06 05:41:40;;;;;;;10.50;6.57;;;;;;;11.84;57.02;94265.72;5043877;28;20659;-48
2023/04/06 05:44:07;;;;;;;8.70;5.90;;;;;;;11.70;56.25;94261.94;5043527;28;20211;-48
2023/04/06 05:46:34;;;;;;;6.43;5.80;;;;;;;11.52;55.66;94252.59;5036364;28;20210;-48
2023/04/06 05:49:01;;;;;;;9.03;6.60;;;;;;;11.46;55.34;94258.34;5042460;28;20191;-48
2023/04/06 05:51:27;;;;;;;8.00;6.63;;;;;;;11.36;54.84;94265.34;5040270;28;20194;-48
2023/04/06 05:53:54;;;;;;;7.73;6.30;;;;;;;11.25;54.54;94261.28;5040349;28;20221;-48
2023/04/06 05:56:21;;;;;;;7.87;6.07;;;;;;;11.15;54.23;94270.84;5041685;28;20191;-48
2023/04/06 05:58:49;;;;;;;7.87;6.63;;;;;;;11.04;54.01;94261.66;5041897;28;20310;-48
2023/04/06 06:01:16;;;;;;;9.97;6.20;;;;;;;10.97;53.79;94257.31;5039012;28;20648;-49
2023/04/06 06:03:43;;;;;;;7.27;6.10;;;;;;;10.93;53.49;94256.81;5042358;28;20231;-48
2023/04/06 06:06:10;;;;;;;7.83;6.63;;;;;;;10.90;53.20;94251.19;5046410;28;20223;-48
2023/04/06 06:08:37;;;;;;;10.33;6.50;;;;;;;10.87;53.09;94249.72;5038798;28;20237;-50
2023/04/06 06:11:04;;;;;;;11.57;6.27;;;;;;;10.85;52.52;94248.28;5036957;28;20203;-48
2023/04/06 06:13:31;;;;;;;10.73;6.93;;;;;;;10.83;52.36;94248.41;5040142;28;20206;-47
2023/04/06 06:15:59;;;;;;;9.07;6.50;;;;;;;10.84;52.25;94255.16;5039372;28;20201;-49
2023/04/06 06:18:26;;;;;;;7.83;7.03;;;;;;;10.85;52.00;94245.72;5039133;28;20246;-50
2023/04/06 06:20:53;;;;;;;7.07;6.27;;;;;;;10.96;51.87;94253.13;5039158;28;20186;-49
2023/04/06 06:23:20;;;;;;;8.90;6.83;;;;;;;11.04;51.47;94253.16;5038611;28;20207;-48
2023/04/06 06:25:47;;;;;;;7.37;6.30;;;;;;;11.18;51.11;94249.25;5039384;28;20211;-49
2023/04/06 06:28:14;;;;;;;9.30;7.13;;;;;;;11.37;50.68;94250.78;5043717;28;20191;-48
2023/04/06 06:30:41;;;;;;;9.97;6.37;;;;;;;11.59;50.41;94252.81;5041578;28;20857;-49
2023/04/06 06:33:10;;;;;;;7.33;6.47;;;;;;;11.78;50.39;94251.72;5037499;28;20188;-49
2023/04/06 06:35:36;;;;;;;8.33;6.23;;;;;;;11.91;50.00;94259.81;5030392;28;20263;-48
2023/04/06 06:38:03;;;;;;;7.40;5.87;;;;;;;12.02;49.85;94264.66;5035424;28;20198;-50
2023/04/06 06:40:30;;;;;;;9.23;6.60;;;;;;;12.08;49.85;94260.63;5044280;28;20222;-48
2023/04/06 06:42:57;;;;;;;7.17;6.37;;;;;;;12.19;49.76;94260.34;5043926;28;20199;-47
2023/04/06 06:45:25;;;;;;;7.93;6.50;;;;;;;12.32;49.45;94259.09;5036192;28;20210;-48
2023/04/06 06:47:52;;;;;;;9.93;6.23;;;;;;;12.40;49.39;94257.34;5040228;28;20282;-47
2023/04/06 06:50:20;;;;;;;7.90;6.60;;;;;;;12.55;48.98;94258.28;5039723;28;20191;-49
2023/04/06 06:52:47;;;;;;;6.27;5.63;;;;;;;12.77;48.74;94267.09;5040769;28;20227;-48
2023/04/06 06:55:15;;;;;;;7.27;5.90;;;;;;;12.96;48.54;94270.31;5038320;28;20191;-49
2023/04/06 06:57:42;;;;;;;6.90;6.20;;;;;;;13.12;48.27;94252.28;5040114;28;20183;-49
2023/04/06 07:00:10;;;;;;;6.67;6.00;;;;;;;13.32;48.08;94257.91;5038046;28;20190;-48
2023/04/06 07:02:37;;;;;;;6.87;5.80;;;;;;;13.50;47.97;94250.78;5043820;28;20266;-48
2023/04/06 07:05:05;;;;;;;5.80;5.17;;;;;;;13.73;47.71;94255.16;5042401;28;20210;-48
2023/04/06 07:07:38;;;;;;;7.27;6.57;;;;;;;13.95;47.25;94240.78;5033109;28;20187;-49
2023/04/06 07:10:09;;;;;;;6.20;5.60;;;;;;;14.37;47.22;94250.63;4998161;28;20196;-49
2023/04/06 07:12:36;;;;;;;7.17;5.90;;;;;;;14.63;47.11;94249.50;4991675;28;20558;-49
2023/04/06 07:15:03;;;;;;;6.53;5.70;;;;;;;14.84;46.88;94256.56;4994082;28;20193;-49
2023/04/06 07:17:30;;;;;;;6.40;5.63;;;;;;;15.00;46.96;94248.72;4990571;28;20609;-48
2023/04/06 07:19:57;;;;;;;6.30;5.70;;;;;;;15.08;46.68;94258.94;4994878;28;20195;-49
2023/04/06 07:22:24;;;;;;;7.93;6.10;;;;;;;15.20;46.44;94254.16;4992662;28;20185;-49
2023/04/06 07:24:52;;;;;;;6.13;5.53;;;;;;;15.36;46.08;94251.38;4990133;28;20244;-48
2023/04/06 07:27:19;;;;;;;7.17;6.43;;;;;;;15.47;46.01;94253.53;4994187;28;20189;-49
2023/04/06 07:29:46;;;;;;;6.43;5.83;;;;;;;15.66;45.53;94249.63;4990267;28;20196;-50
2023/04/06 07:32:13;;;;;;;7.17;6.03;;;;;;;15.82;45.34;94255.56;4989739;28;20591;-50
2023/04/06 07:34:40;;;;;;;7.03;6.33;;;;;;;15.49;44.97;94183.75;4993270;28;20682;-48
2023/04/06 07:37:07;;;;;;;7.03;5.10;;;;;;;16.18;44.93;94260.72;4996719;28;20191;-47
2023/04/06 07:39:35;;;;;;;6.30;5.63;;;;;;;16.52;44.39;94250.56;4994592;28;20189;-48
2023/04/06 07:42:04;;;;;;;5.40;4.90;;;;;;;17.09;44.42;94250.63;5001353;28;20193;-48
2023/04/06 07:44:31;;;;;;;5.70;4.97;;;;;;;17.74;44.54;94247.66;4997081;28;20192;-47
2023/04/06 07:46:57;;;;;;;5.60;5.10;;;;;;;18.41;44.57;94246.06;5001890;28;20208;-48
2023/04/06 07:49:24;;;;;;;6.73;4.77;;;;;;;19.11;44.71;94253.50;5003851;28;20631;-50
2023/04/06 07:51:51;;;;;;;5.63;4.87;;;;;;;19.63;44.01;94242.25;4989523;28;20300;-49
2023/04/06 07:54:18;;;;;;;6.83;5.03;;;;;;;20.23;44.10;94247.19;4989296;28;20190;-50
2023/04/06 07:56:45;;;;;;;7.23;5.07;;;;;;;20.70;43.80;94251.13;4995889;28;20268;-49
2023/04/06 07:59:13;;;;;;;6.80;5.03;;;;;;;21.02;43.29;94254.47;5003403;28;20196;-48
2023/04/06 08:01:40;;;;;;;5.57;5.00;;;;;;;21.37;42.99;94250.59;5002584;28;20687;-48
2023/04/06 08:04:07;;;;;;;5.53;4.77;;;;;;;21.76;42.75;94252.81;5001126;28;20659;-49
2023/04/06 08:06:34;;;;;;;5.63;5.03;;;;;;;22.18;42.39;94250.31;5001321;28;20200;-50
2023/04/06 08:09:01;;;;;;;5.32;4.82;;;;;;;22.35;42.34;94245.31;5017278;28;20267;-50
2023/04/06 08:11:28;;;;;;;5.30;4.80;;;;;;;22.44;41.99;94253.59;5037469;28;20198;-49
2023/04/06 08:13:56;;;;;;;5.95;5.22;;;;;;;22.52;41.97;94250.69;5039300;28;20283;-48
2023/04/06 08:16:25;;;;;;;6.00;5.47;;;;;;;22.60;41.69;94252.97;5039888;28;20186;-48
2023/04/06 08:18:52;;;;;;;5.72;5.20;;;;;;;22.72;41.59;94258.22;5037366;28;20204;-48
2023/04/06 08:21:19;;;;;;;5.85;5.25;;;;;;;22.85;41.52;94255.41;5040769;28;20187;-49
2023/04/06 08:23:46;;;;;;;5.75;5.18;;;;;;;22.98;41.05;94252.63;5039360;28;20199;-49
2023/04/06 08:26:13;;;;;;;5.75;5.32;;;;;;;23.06;40.99;94261.13;5037940;28;20207;-50
2023/04/06 08:28:40;;;;;;;5.50;5.00;;;;;;;23.02;40.69;94258.19;5039471;28;20195;-49
2023/04/06 08:31:07;;;;;;;6.28;5.13;;;;;;;22.98;40.37;94262.28;5034783;28;20187;-48
2023/04/06 08:33:38;;;;;;;5.63;5.13;;;;;;;22.71;39.94;94230.53;5034830;28;20186;-49
2023/04/06 08:36:10;;;;;;;5.38;4.88;;;;;;;22.90;39.82;94266.00;5041657;28;20190;-48
2023/04/06 08:38:37;;;;;;;8.68;5.57;;;;;;;22.84;39.77;94260.84;5038541;28;20202;-49
2023/04/06 08:41:09;;;;;;;6.22;5.57;;;;;;;22.71;39.08;94264.44;5037636;28;20183;-49
2023/04/06 08:43:42;;;;;;;7.65;5.18;;;;;;;22.59;38.85;94267.03;5039202;28;20191;-49
2023/04/06 08:46:10;;;;;;;6.28;5.47;;;;;;;22.50;38.54;94253.53;5039800;28;20691;-49
2023/04/06 08:48:39;;;;;;;8.25;5.00;;;;;;;22.45;38.06;94263.00;5036732;28;20203;-49
2023/04/06 08:51:07;;;;;;;6.95;5.07;;;;;;;22.50;38.09;94276.97;5031080;28;20199;-49
2023/04/06 08:53:34;;;;;;;5.63;5.10;;;;;;;22.53;38.02;94262.69;5039925;28;20193;-49
2023/04/06 08:56:02;;;;;;;5.13;4.63;;;;;;;22.56;37.83;94254.44;5035909;28;20227;-49
2023/04/06 08:58:33;;;;;;;5.55;5.00;;;;;;;22.63;37.80;94265.56;5034269;28;20740;-49
2023/04/06 09:01:01;;;;;;;6.28;4.78;;;;;;;22.70;37.51;94263.66;5046750;28;20681;-49
2023/04/06 09:03:30;;;;;;;5.30;4.80;;;;;;;22.83;37.37;94259.25;5036577;28;20195;-50
2023/04/06 09:06:00;;;;;;;5.45;4.95;;;;;;;22.75;37.34;94250.75;5042797;28;20249;-49
2023/04/06 09:08:27;;;;;;;6.38;5.78;;;;;;;22.53;37.44;94250.44;5045448;28;20277;-48
2023/04/06 09:10:54;;;;;;;5.50;5.00;;;;;;;22.28;37.25;94248.00;5037376;28;20194;-50
2023/04/06 09:13:20;;;;;;;6.05;5.45;;;;;;;22.17;37.06;94253.16;5037596;28;20223;-49
2023/04/06 09:15:47;;;;;;;5.40;4.88;;;;;;;21.94;36.98;94253.81;5046630;28;20187;-49
2023/04/06 09:18:28;;;;;;;5.70;5.20;;;;;;;21.67;36.92;94254.09;5034885;28;20196;-49
2023/04/06 09:21:01;;;;;;;6.07;5.47;;;;;;;21.38;36.83;94255.63;5040194;28;20581;-49
2023/04/06 09:23:28;;;;;;;5.30;4.80;;;;;;;21.19;36.95;94257.34;5044439;28;20199;-49
2023/04/06 09:26:07;;;;;;;7.30;5.40;;;;;;;21.02;36.81;94264.88;5040546;28;20221;-49
2023/04/06 09:28:43;;;;;;;6.50;5.90;;;;;;;20.85;36.92;94250.03;5039786;28;20211;-49
2023/04/06 09:31:10;;;;;;;6.00;5.10;;;;;;;20.73;36.88;94252.53;5039110;28;20206;-50
2023/04/06 09:33:39;;;;;;;5.75;4.97;;;;;;;20.58;36.85;94260.63;5035475;28;20227;-50
2023/04/06 09:36:09;;;;;;;5.57;5.05;;;;;;;20.42;37.16;94253.28;5039898;28;20306;-53
2023/04/06 09:38:38;;;;;;;5.70;5.10;;;;;;;20.27;37.17;94254.38;5040296;28;20670;-50
2023/04/06 09:41:05;;;;;;;9.77;5.63;;;;;;;20.16;37.12;94249.03;5040003;28;20206;-48
2023/04/06 09:43:32;;;;;;;6.67;6.07;;;;;;;20.06;37.03;94249.47;5041535;28;20278;-49
2023/04/06 09:46:02;;;;;;;5.50;5.00;;;;;;;20.00;37.02;94252.91;5042492;28;20241;-50
2023/04/06 09:48:35;;;;;;;6.37;5.77;;;;;;;20.01;37.40;94236.34;5041999;28;20191;-48
2023/04/06 09:51:08;;;;;;;6.47;5.50;;;;;;;20.07;36.79;94238.09;5036284;28;20199;-48
2023/04/06 09:53:38;;;;;;;5.67;5.13;;;;;;;20.12;36.58;94242.66;5037253;28;20273;-49
2023/04/06 09:56:12;;;;;;;6.50;5.50;;;;;;;20.15;36.61;94248.25;5037820;28;20368;-48
2023/04/06 09:58:44;;;;;;;6.00;5.47;;;;;;;20.09;36.50;94240.50;5037542;28;20194;-48
2023/04/06 10:01:14;;;;;;;10.37;5.63;;;;;;;20.10;36.41;94236.88;5039799;28;20271;-50
2023/04/06 10:03:50;;;;;;;5.83;5.23;;;;;;;20.08;36.29;94241.47;5044965;28;20191;-50
2023/04/06 10:06:22;;;;;;;6.67;5.37;;;;;;;20.13;36.29;94246.88;5033866;28;20644;-50
2023/04/06 10:08:54;;;;;;;5.40;4.90;;;;;;;19.97;36.04;94224.78;5039124;28;20234;-50
2023/04/06 10:11:21;;;;;;;7.60;5.50;;;;;;;20.07;36.04;94242.50;5037898;28;20660;-50
2023/04/06 10:13:49;;;;;;;6.00;5.50;;;;;;;20.04;36.23;94236.72;5041589;28;20202;-50
2023/04/06 10:16:17;;;;;;;7.27;5.87;;;;;;;20.02;36.09;94236.13;5041289;28;20218;-50
2023/04/06 10:18:48;;;;;;;5.73;5.10;;;;;;;19.93;35.97;94239.94;5038815;28;20192;-51
2023/04/06 10:21:21;;;;;;;5.97;5.23;;;;;;;19.82;36.11;94226.81;5038989;28;20213;-50
2023/04/06 10:23:51;;;;;;;5.47;4.97;;;;;;;19.71;36.19;94231.66;5039574;28;20270;-49
2023/04/06 10:26:21;;;;;;;6.17;5.50;;;;;;;19.58;36.24;94228.28;5038768;28;20720;-49
2023/04/06 10:28:50;;;;;;;6.13;5.50;;;;;;;19.45;36.46;94223.94;5033444;28;20196;-49
2023/04/06 10:31:25;;;;;;;6.20;5.60;;;;;;;19.18;36.42;94195.47;5041399;28;20195;-49
2023/04/06 10:33:56;;;;;;;7.23;5.47;;;;;;;19.34;36.26;94224.53;5035083;28;20217;-49
2023/04/06 10:36:26;;;;;;;6.20;5.60;;;;;;;19.34;36.12;94214.16;5040992;28;20204;-48
2023/04/06 10:38:58;;;;;;;7.77;6.10;;;;;;;19.43;35.86;94213.78;5043010;28;20188;-50
2023/04/06 10:41:33;;;;;;;10.47;5.60;;;;;;;19.49;35.93;94220.72;5036211;28;20223;-51
2023/04/06 10:44:00;;;;;;;6.07;5.53;;;;;;;19.44;36.00;94212.75;5039458;28;20557;-50
2023/04/06 10:46:31;;;;;;;7.83;5.40;;;;;;;19.28;36.00;94200.22;5040487;28;20207;-51
2023/04/06 10:48:58;;;;;;;6.00;5.50;;;;;;;19.18;35.97;94192.09;5041621;28;20203;-50
2023/04/06 10:51:30;;;;;;;6.13;5.53;;;;;;;19.26;36.08;94213.41;5040528;28;20614;-50
2023/04/06 10:53:59;;;;;;;6.03;5.43;;;;;;;19.19;36.02;94217.81;5043282;28;20194;-49
2023/04/06 10:56:27;;;;;;;6.23;5.63;;;;;;;19.12;36.00;94219.59;5039106;28;20220;-48
2023/04/06 10:58:56;;;;;;;5.87;5.20;;;;;;;19.11;36.01;94217.22;5041701;28;20195;-50
2023/04/06 11:01:24;;;;;;;5.67;5.17;;;;;;;19.17;36.05;94214.63;5034309;28;20542;-49
2023/04/06 11:03:52;;;;;;;6.90;5.60;;;;;;;19.20;36.11;94216.78;5036469;28;20566;-51
2023/04/06 11:06:20;;;;;;;7.87;6.27;;;;;;;19.21;35.80;94207.22;5036687;28;20749;-49
2023/04/06 11:08:48;;;;;;;6.27;5.73;;;;;;;19.28;35.93;94203.63;5038319;28;20300;-49
2023/04/06 11:11:18;;;;;;;7.30;5.40;;;;;;;19.34;35.84;94198.63;5040457;28;20203;-49
2023/04/06 11:13:46;;;;;;;6.47;5.87;;;;;;;19.38;35.64;94192.03;5037757;28;20714;-49
2023/04/06 11:16:14;;;;;;;6.40;5.73;;;;;;;19.26;35.76;94174.53;5041127;28;20191;-49
2023/04/06 11:18:49;;;;;;;6.07;5.50;;;;;;;19.39;35.69;94197.03;5034954;28;20199;-51
2023/04/06 11:21:16;;;;;;;6.30;5.70;;;;;;;19.43;35.53;94199.97;5038069;28;20203;-50
2023/04/06 11:23:43;;;;;;;6.87;5.63;;;;;;;19.43;35.52;94184.41;5041050;28;20191;-49
2023/04/06 11:26:13;;;;;;;6.13;5.07;;;;;;;19.45;35.53;94185.03;5042941;28;20209;-48
2023/04/06 11:28:42;;;;;;;5.83;5.17;;;;;;;19.48;35.53;94189.81;5041086;28;20199;-48
2023/04/06 11:31:08;;;;;;;6.43;5.37;;;;;;;19.46;35.43;94179.63;5039013;28;20221;-50
2023/04/06 11:33:39;;;;;;;5.50;4.93;;;;;;;19.49;35.52;94181.03;5039068;28;20205;-50
2023/04/06 11:36:07;;;;;;;6.93;5.73;;;;;;;19.45;35.45;94182.44;5038023;28;20246;-49
2023/04/06 11:38:34;;;;;;;5.83;5.23;;;;;;;19.40;35.45;94177.06;5036690;28;20187;-50